Time;durP1;ratioP1;P1;durP2;ratioP2;P2;SDS_P1;SDS_P2;PMS_P1;PMS_P2;Temp;Humidity;BMP_temperature;BMP_pressure;BME280_temperature;BME280_humidity;BME280_pressure;Samples;Min_cycle;Max_cycle;Signal;HPM_P1;HPM_P2
2022/11/05 00:09:38;;;;;;;14.55;9.48;;;;;;;;;;5073761;28;20543;-64
2022/11/05 00:17:35;;;;;;;19.15;9.52;;;;;;;;;;5074146;28;20186;-65
2022/11/05 00:20:02;;;;;;;14.63;9.80;;;;;;;;;;5073094;28;20568;-66
2022/11/05 00:25:15;;;;;;;14.20;10.10;;;;;;;;;;5072973;28;20263;-65
2022/11/05 00:27:43;;;;;;;15.23;10.18;;;;;;;;;;5076998;28;20204;-65
2022/11/05 00:30:10;;;;;;;13.57;9.18;;;;;;;;;;5076735;28;20237;-65
2022/11/05 00:32:39;;;;;;;20.83;9.80;;;;;;;;;;5077227;28;20228;-66
2022/11/05 00:35:07;;;;;;;18.10;10.02;;;;;;;;;;5077658;28;20222;-65
2022/11/05 00:37:34;;;;;;;15.38;9.60;;;;;;;;;;5076956;28;20205;-63
2022/11/05 00:40:01;;;;;;;14.82;9.77;;;;;;;;;;5076967;28;20207;-65
2022/11/05 00:45:09;;;;;;;20.58;11.38;;;;;;;;;;5042827;28;20200;-63
2022/11/05 00:50:23;;;;;;;18.20;10.57;;;;;;;;;;5076538;28;20196;-63
2022/11/05 00:52:58;;;;;;;20.08;11.40;;;;;;;;;;5077224;28;20235;-65
2022/11/05 00:55:27;;;;;;;19.58;12.27;;;;;;;;;;5076458;28;20752;-65
2022/11/05 00:57:54;;;;;;;15.77;9.90;;;;;;;;;;5076692;28;20211;-65
2022/11/05 01:00:22;;;;;;;16.70;9.80;;;;;;;;;;5076328;28;20207;-63
2022/11/05 01:02:49;;;;;;;17.98;10.73;;;;;;;;;;5076135;28;20286;-65
2022/11/05 01:05:16;;;;;;;17.63;10.00;;;;;;;;;;5075863;28;20694;-65
2022/11/05 01:07:44;;;;;;;17.02;10.75;;;;;;;;;;5076343;28;20205;-64
2022/11/05 01:10:12;;;;;;;21.52;11.20;;;;;;;;;;5076159;28;20212;-63
2022/11/05 01:12:39;;;;;;;25.13;10.55;;;;;;;;;;5076042;28;20227;-64
2022/11/05 01:15:06;;;;;;;19.45;10.10;;;;;;;;;;5075909;28;20589;-64
2022/11/05 01:17:33;;;;;;;17.58;10.02;;;;;;;;;;5076149;28;20203;-65
2022/11/05 01:20:00;;;;;;;21.27;10.45;;;;;;;;;;5076397;28;20204;-64
2022/11/05 01:22:27;;;;;;;20.38;11.65;;;;;;;;;;5075747;28;20239;-64
2022/11/05 01:24:56;;;;;;;19.02;10.32;;;;;;;;;;5075713;28;20206;-64
2022/11/05 01:27:23;;;;;;;15.98;9.23;;;;;;;;;;5075781;28;20205;-64
2022/11/05 01:29:50;;;;;;;15.50;8.50;;;;;;;;;;5076026;28;20226;-64
2022/11/05 01:32:17;;;;;;;21.63;10.45;;;;;;;;;;5076398;28;20252;-64
2022/11/05 01:34:44;;;;;;;17.25;9.40;;;;;;;;;;5076187;28;20219;-64
2022/11/05 01:37:12;;;;;;;28.58;10.07;;;;;;;;;;5075673;28;20619;-65
2022/11/05 01:39:39;;;;;;;13.65;8.77;;;;;;;;;;5075954;28;20236;-65
2022/11/05 01:42:13;;;;;;;15.68;8.00;;;;;;;;;;5075632;28;20197;-65
2022/11/05 01:45:01;;;;;;;15.00;9.50;;;;;;;;;;5075650;28;20179;-65
2022/11/05 01:47:33;;;;;;;14.00;8.10;;;;;;;;;;5072116;28;20200;-65
2022/11/05 01:50:01;;;;;;;13.95;8.45;;;;;;;;;;5075469;28;20187;-65
2022/11/05 01:52:29;;;;;;;13.07;7.55;;;;;;;;;;5075333;28;20217;-65
2022/11/05 01:54:56;;;;;;;14.18;8.88;;;;;;;;;;5075232;28;20218;-65
2022/11/05 01:57:25;;;;;;;16.33;8.27;;;;;;;;;;5075271;28;20202;-65
2022/11/05 01:59:54;;;;;;;14.35;8.07;;;;;;;;;;5075015;28;20219;-64
2022/11/05 02:02:22;;;;;;;11.45;7.72;;;;;;;;;;5075044;28;22008;-65
2022/11/05 02:04:52;;;;;;;13.98;7.88;;;;;;;;;;5075466;28;20194;-64
2022/11/05 02:07:20;;;;;;;23.23;7.88;;;;;;;;;;5075288;28;20197;-65
2022/11/05 02:09:49;;;;;;;14.52;7.45;;;;;;;;;;5074538;28;20659;-65
2022/11/05 02:12:16;;;;;;;14.10;8.30;;;;;;;;;;5074365;28;20202;-65
2022/11/05 02:14:45;;;;;;;15.70;7.47;;;;;;;;;;5074795;28;20226;-65
2022/11/05 02:17:17;;;;;;;14.50;7.35;;;;;;;;;;5074864;28;20213;-64
2022/11/05 02:20:09;;;;;;;10.05;6.13;;;;;;;;;;5074748;28;20190;-65
2022/11/05 02:22:51;;;;;;;10.40;6.10;;;;;;;;;;5074326;28;20530;-64
2022/11/05 02:25:27;;;;;;;11.55;6.75;;;;;;;;;;5053314;28;20210;-65
2022/11/05 02:28:14;;;;;;;13.07;6.78;;;;;;;;;;5074731;28;20194;-65
2022/11/05 02:30:46;;;;;;;11.13;6.95;;;;;;;;;;5074922;28;20281;-65
2022/11/05 02:33:30;;;;;;;16.20;7.35;;;;;;;;;;5074907;28;20221;-65
2022/11/05 02:36:07;;;;;;;11.00;6.50;;;;;;;;;;5073153;28;20226;-65
2022/11/05 02:38:39;;;;;;;12.60;6.28;;;;;;;;;;5073915;28;20192;-65
2022/11/05 02:41:09;;;;;;;11.82;6.55;;;;;;;;;;5074139;28;20531;-65
2022/11/05 02:43:42;;;;;;;11.20;5.72;;;;;;;;;;5074103;28;20222;-65
2022/11/05 02:46:16;;;;;;;9.38;6.50;;;;;;;;;;5074093;28;20186;-65
2022/11/05 02:48:47;;;;;;;12.70;6.72;;;;;;;;;;5074341;28;20187;-64
2022/11/05 02:51:17;;;;;;;8.80;5.50;;;;;;;;;;5074843;28;20198;-65
2022/11/05 02:53:47;;;;;;;13.95;5.65;;;;;;;;;;5074129;28;20226;-65
2022/11/05 02:56:17;;;;;;;12.27;6.63;;;;;;;;;;5073940;28;20242;-64
2022/11/05 02:58:44;;;;;;;7.35;4.90;;;;;;;;;;5073959;28;20194;-64
2022/11/05 03:01:13;;;;;;;12.77;6.28;;;;;;;;;;5073949;28;20572;-63
2022/11/05 03:03:41;;;;;;;11.50;5.25;;;;;;;;;;5073682;28;20616;-63
2022/11/05 03:06:26;;;;;;;8.60;4.90;;;;;;;;;;5073878;28;20199;-63
2022/11/05 03:09:03;;;;;;;10.30;6.03;;;;;;;;;;5053139;28;20210;-63
2022/11/05 03:11:33;;;;;;;7.35;5.25;;;;;;;;;;5073819;28;20193;-63
2022/11/05 03:14:03;;;;;;;12.18;4.85;;;;;;;;;;5074007;28;20729;-63
2022/11/05 03:16:33;;;;;;;12.20;5.22;;;;;;;;;;5073353;28;20682;-65
2022/11/05 03:19:03;;;;;;;6.53;4.55;;;;;;;;;;5073353;28;20202;-65
2022/11/05 03:21:37;;;;;;;15.85;5.22;;;;;;;;;;5073140;28;20724;-64
2022/11/05 03:24:06;;;;;;;7.28;5.30;;;;;;;;;;5073719;28;20749;-64
2022/11/05 03:26:36;;;;;;;13.82;4.40;;;;;;;;;;5073262;28;20665;-64
2022/11/05 03:29:05;;;;;;;12.52;4.05;;;;;;;;;;5073441;28;20217;-63
2022/11/05 03:31:34;;;;;;;10.63;4.30;;;;;;;;;;5073204;28;20626;-64
2022/11/05 03:34:02;;;;;;;8.65;4.30;;;;;;;;;;5075223;28;20678;-65
2022/11/05 03:36:32;;;;;;;10.30;4.65;;;;;;;;;;5075025;28;20250;-65
2022/11/05 03:39:02;;;;;;;11.48;4.38;;;;;;;;;;5073082;28;20691;-65
2022/11/05 03:41:29;;;;;;;8.20;3.22;;;;;;;;;;5073221;28;20198;-65
2022/11/05 03:43:59;;;;;;;9.65;4.18;;;;;;;;;;5073258;28;20304;-65
2022/11/05 03:46:28;;;;;;;7.55;3.88;;;;;;;;;;5073047;28;20216;-65
2022/11/05 03:48:58;;;;;;;8.38;4.22;;;;;;;;;;5073110;28;20206;-65
2022/11/05 03:51:29;;;;;;;11.73;4.28;;;;;;;;;;5073089;28;20213;-65
2022/11/05 03:53:58;;;;;;;10.82;3.65;;;;;;;;;;5072811;28;20249;-65
2022/11/05 03:56:28;;;;;;;6.78;3.50;;;;;;;;;;5072845;28;20226;-65
2022/11/05 03:58:55;;;;;;;5.75;2.85;;;;;;;;;;5072888;28;20202;-65
2022/11/05 04:01:23;;;;;;;4.93;2.95;;;;;;;;;;5072346;28;20598;-65
2022/11/05 04:03:50;;;;;;;8.43;3.42;;;;;;;;;;5072632;28;20230;-65
2022/11/05 04:13:24;;;;;;;13.52;3.92;;;;;;;;;;5120556;28;20224;-66
2022/11/05 04:18:36;;;;;;;10.40;4.10;;;;;;;;;;5110514;28;20180;-64
2022/11/05 04:26:35;;;;;;;8.55;3.58;;;;;;;;;;5070019;28;20656;-67
2022/11/05 04:31:47;;;;;;;10.50;3.45;;;;;;;;;;5074743;28;20235;-67
2022/11/05 04:34:15;;;;;;;7.03;3.70;;;;;;;;;;5090595;28;20198;-67
2022/11/05 04:36:42;;;;;;;6.05;3.42;;;;;;;;;;5090399;28;20202;-66
2022/11/05 04:39:09;;;;;;;7.55;3.38;;;;;;;;;;5090376;28;20574;-66
2022/11/05 04:41:37;;;;;;;12.60;3.20;;;;;;;;;;5090106;28;20202;-67
2022/11/05 04:44:04;;;;;;;9.20;3.60;;;;;;;;;;5090846;28;20201;-66
2022/11/05 04:46:31;;;;;;;5.38;3.20;;;;;;;;;;5090118;28;20205;-66
2022/11/05 04:48:58;;;;;;;7.78;3.67;;;;;;;;;;5089549;28;20231;-66
2022/11/05 04:51:26;;;;;;;17.38;3.58;;;;;;;;;;5089500;28;20665;-66
2022/11/05 04:53:53;;;;;;;14.57;3.42;;;;;;;;;;5094155;28;20205;-66
2022/11/05 04:56:22;;;;;;;7.88;2.85;;;;;;;;;;5102277;28;20212;-66
2022/11/05 04:58:50;;;;;;;9.50;3.00;;;;;;;;;;5102572;28;20201;-66
2022/11/05 05:01:19;;;;;;;10.88;3.50;;;;;;;;;;5098361;28;20320;-66
2022/11/05 05:03:47;;;;;;;6.60;3.20;;;;;;;;;;5094164;28;20206;-66
2022/11/05 05:06:14;;;;;;;13.13;3.08;;;;;;;;;;5092930;28;20207;-66
2022/11/05 05:08:41;;;;;;;8.07;3.33;;;;;;;;;;5091946;28;20216;-66
2022/11/05 05:11:09;;;;;;;8.43;3.50;;;;;;;;;;5090487;28;20201;-65
2022/11/05 05:13:36;;;;;;;10.95;2.70;;;;;;;;;;5090403;28;20246;-66
2022/11/05 05:16:07;;;;;;;7.43;2.90;;;;;;;;;;5090610;28;20214;-65
2022/11/05 05:18:34;;;;;;;10.13;3.13;;;;;;;;;;5090839;28;20211;-66
2022/11/05 05:23:47;;;;;;;6.32;2.28;;;;;;;;;;5076196;28;20209;-66
2022/11/05 05:26:14;;;;;;;7.75;2.85;;;;;;;;;;5077247;28;20247;-65
2022/11/05 05:28:41;;;;;;;7.85;3.85;;;;;;;;;;5075588;28;20222;-65
2022/11/05 05:31:10;;;;;;;5.53;2.78;;;;;;;;;;5076003;28;20202;-66
2022/11/05 05:33:37;;;;;;;6.97;3.13;;;;;;;;;;5075294;28;20218;-65
2022/11/05 05:36:04;;;;;;;8.98;3.00;;;;;;;;;;5076213;28;20315;-66
2022/11/05 05:38:31;;;;;;;7.13;3.67;;;;;;;;;;5075296;28;20204;-66
2022/11/05 05:40:59;;;;;;;7.43;3.72;;;;;;;;;;5075783;28;20203;-64
2022/11/05 05:43:26;;;;;;;6.78;3.60;;;;;;;;;;5075000;28;20704;-65
2022/11/05 05:45:53;;;;;;;6.85;3.30;;;;;;;;;;5075716;28;20209;-66
2022/11/05 05:48:21;;;;;;;5.25;3.78;;;;;;;;;;5074756;28;20206;-65
2022/11/05 05:50:48;;;;;;;7.15;3.58;;;;;;;;;;5075052;28;20224;-65
2022/11/05 05:53:15;;;;;;;10.20;3.45;;;;;;;;;;5074610;28;20697;-66
2022/11/05 05:55:42;;;;;;;5.47;3.80;;;;;;;;;;5074531;28;20586;-66
2022/11/05 05:58:09;;;;;;;9.35;3.15;;;;;;;;;;5075228;28;20582;-65
2022/11/05 06:00:36;;;;;;;7.20;3.58;;;;;;;;;;5074911;28;20206;-67
2022/11/05 06:03:05;;;;;;;7.85;4.38;;;;;;;;;;5075208;28;20219;-66
2022/11/05 06:05:33;;;;;;;11.90;4.57;;;;;;;;;;5075789;28;20197;-66
2022/11/05 06:08:00;;;;;;;10.27;3.67;;;;;;;;;;5077571;28;20201;-65
2022/11/05 06:10:27;;;;;;;6.22;3.40;;;;;;;;;;5077558;28;20214;-65
2022/11/05 06:12:54;;;;;;;12.25;3.53;;;;;;;;;;5081076;28;20235;-66
2022/11/05 06:15:21;;;;;;;10.27;3.90;;;;;;;;;;5081965;28;20207;-66
2022/11/05 06:17:48;;;;;;;5.65;3.60;;;;;;;;;;5077463;28;20201;-66
2022/11/05 06:20:15;;;;;;;10.68;4.13;;;;;;;;;;5077583;28;20197;-66
2022/11/05 06:22:44;;;;;;;8.65;3.90;;;;;;;;;;5076499;28;20235;-65
2022/11/05 06:25:11;;;;;;;6.38;3.45;;;;;;;;;;5076143;28;20541;-66
2022/11/05 06:27:38;;;;;;;6.35;4.13;;;;;;;;;;5076054;28;20573;-66
2022/11/05 06:30:06;;;;;;;6.03;3.75;;;;;;;;;;5078200;28;20217;-65
2022/11/05 06:32:33;;;;;;;9.88;3.70;;;;;;;;;;5085588;28;20232;-64
2022/11/05 06:35:00;;;;;;;6.25;4.47;;;;;;;;;;5082277;28;20206;-66
2022/11/05 06:37:27;;;;;;;11.65;4.30;;;;;;;;;;5079503;28;20197;-65
2022/11/05 06:39:56;;;;;;;7.65;4.25;;;;;;;;;;5075605;28;20194;-65
2022/11/05 06:42:24;;;;;;;8.13;4.55;;;;;;;;;;5074796;28;20590;-64
2022/11/05 06:44:51;;;;;;;6.40;4.35;;;;;;;;;;5075605;28;20205;-64
2022/11/05 06:47:18;;;;;;;9.90;4.85;;;;;;;;;;5075108;28;20197;-66
2022/11/05 06:49:45;;;;;;;8.57;4.80;;;;;;;;;;5075527;28;20595;-64
2022/11/05 06:52:13;;;;;;;6.85;4.55;;;;;;;;;;5077204;28;20213;-66
2022/11/05 06:54:41;;;;;;;7.75;4.65;;;;;;;;;;5073927;28;20665;-66
2022/11/05 06:57:09;;;;;;;8.60;4.25;;;;;;;;;;5074235;28;20561;-66
2022/11/05 06:59:36;;;;;;;13.50;4.70;;;;;;;;;;5074186;28;20589;-65
2022/11/05 07:02:04;;;;;;;7.97;4.43;;;;;;;;;;5074453;28;20221;-65
2022/11/05 07:04:31;;;;;;;9.25;4.88;;;;;;;;;;5074631;28;20239;-65
2022/11/05 07:06:59;;;;;;;9.60;4.20;;;;;;;;;;5075018;28;20205;-66
2022/11/05 07:09:26;;;;;;;12.65;4.28;;;;;;;;;;5073777;28;20259;-66
2022/11/05 07:11:53;;;;;;;7.82;4.50;;;;;;;;;;5074796;28;20217;-66
2022/11/05 07:14:22;;;;;;;12.18;5.22;;;;;;;;;;5074756;28;20560;-66
2022/11/05 07:16:49;;;;;;;10.75;4.47;;;;;;;;;;5073510;28;20210;-66
2022/11/05 07:19:16;;;;;;;8.30;4.45;;;;;;;;;;5074022;28;20208;-66
2022/11/05 07:21:44;;;;;;;8.55;5.38;;;;;;;;;;5073695;28;20563;-66
2022/11/05 07:24:13;;;;;;;6.25;4.05;;;;;;;;;;5074037;28;20188;-67
2022/11/05 07:26:40;;;;;;;10.98;4.53;;;;;;;;;;5073436;28;20288;-66
2022/11/05 07:29:07;;;;;;;8.82;4.30;;;;;;;;;;5072941;28;20204;-65
2022/11/05 07:31:35;;;;;;;21.38;4.63;;;;;;;;;;5072983;28;20195;-66
2022/11/05 07:34:03;;;;;;;11.25;4.50;;;;;;;;;;5073375;28;20331;-66
2022/11/05 07:36:30;;;;;;;10.98;4.20;;;;;;;;;;5074068;28;20194;-66
2022/11/05 07:38:57;;;;;;;8.52;4.65;;;;;;;;;;5076062;28;20200;-67
2022/11/05 07:41:24;;;;;;;8.65;4.85;;;;;;;;;;5074476;28;20198;-65
2022/11/05 07:43:51;;;;;;;14.25;5.38;;;;;;;;;;5073727;28;20194;-66
2022/11/05 07:46:18;;;;;;;10.05;5.78;;;;;;;;;;5073567;28;20198;-66
2022/11/05 07:48:47;;;;;;;13.55;7.63;;;;;;;;;;5074651;28;20702;-66
2022/11/05 07:51:14;;;;;;;9.40;6.78;;;;;;;;;;5074218;28;20214;-67
2022/11/05 07:53:41;;;;;;;9.82;5.63;;;;;;;;;;5073834;28;20219;-65
2022/11/05 07:56:08;;;;;;;8.73;5.53;;;;;;;;;;5071539;28;20202;-65
2022/11/05 07:58:37;;;;;;;12.32;6.68;;;;;;;;;;5074514;28;20211;-67
2022/11/05 08:01:05;;;;;;;15.65;6.18;;;;;;;;;;5074811;28;20639;-65
2022/11/05 08:03:33;;;;;;;8.63;6.03;;;;;;;;;;5074422;28;20258;-66
2022/11/05 08:06:01;;;;;;;8.35;5.50;;;;;;;;;;5074626;28;20211;-66
2022/11/05 08:08:28;;;;;;;9.48;5.95;;;;;;;;;;5074177;28;20207;-66
2022/11/05 08:11:02;;;;;;;9.65;5.25;;;;;;;;;;5073461;28;20230;-66
2022/11/05 08:13:29;;;;;;;8.57;5.18;;;;;;;;;;5073695;28;20228;-66
2022/11/05 08:15:57;;;;;;;6.30;5.28;;;;;;;;;;5074126;28;20573;-67
2022/11/05 08:18:30;;;;;;;9.57;5.90;;;;;;;;;;5075447;28;20200;-67
2022/11/05 08:20:57;;;;;;;7.40;5.85;;;;;;;;;;5076080;28;20261;-67
2022/11/05 08:23:26;;;;;;;9.68;6.00;;;;;;;;;;5073195;28;20580;-67
2022/11/05 08:25:53;;;;;;;7.80;5.28;;;;;;;;;;5073974;28;20205;-66
2022/11/05 08:28:20;;;;;;;6.70;5.07;;;;;;;;;;5073551;28;20212;-67
2022/11/05 08:30:49;;;;;;;8.65;5.60;;;;;;;;;;5073323;28;20310;-66
2022/11/05 08:33:16;;;;;;;11.70;7.25;;;;;;;;;;5074480;28;20242;-65
2022/11/05 08:35:43;;;;;;;10.27;6.55;;;;;;;;;;5073061;28;20206;-66
2022/11/05 08:38:12;;;;;;;11.82;6.43;;;;;;;;;;5074148;28;20210;-66
2022/11/05 08:40:41;;;;;;;6.43;5.45;;;;;;;;;;5073438;28;20607;-66
2022/11/05 08:43:09;;;;;;;10.35;6.15;;;;;;;;;;5073100;28;20575;-66
2022/11/05 08:45:37;;;;;;;8.52;7.57;;;;;;;;;;5073333;28;20221;-66
2022/11/05 08:48:04;;;;;;;9.07;5.63;;;;;;;;;;5073871;28;20204;-68
2022/11/05 08:50:32;;;;;;;9.93;5.43;;;;;;;;;;5073630;28;20250;-67
2022/11/05 08:52:59;;;;;;;8.00;6.43;;;;;;;;;;5074329;28;20224;-66
2022/11/05 08:55:27;;;;;;;9.57;6.15;;;;;;;;;;5076329;28;20209;-66
2022/11/05 08:57:58;;;;;;;6.15;5.47;;;;;;;;;;5078045;28;20194;-67
2022/11/05 09:00:26;;;;;;;9.73;5.15;;;;;;;;;;5078409;28;20693;-66
2022/11/05 09:02:53;;;;;;;9.65;6.22;;;;;;;;;;5087940;28;20226;-66
2022/11/05 09:05:21;;;;;;;8.77;5.35;;;;;;;;;;5091150;28;20211;-66
2022/11/05 09:07:48;;;;;;;6.20;4.63;;;;;;;;;;5088755;28;20206;-66
2022/11/05 09:10:15;;;;;;;7.15;4.28;;;;;;;;;;5087247;28;20221;-66
2022/11/05 09:12:42;;;;;;;7.40;4.15;;;;;;;;;;5083869;28;20234;-66
2022/11/05 09:15:11;;;;;;;6.30;3.80;;;;;;;;;;5087041;28;20212;-66
2022/11/05 09:17:38;;;;;;;9.10;4.20;;;;;;;;;;5085931;28;20200;-66
2022/11/05 09:20:06;;;;;;;6.40;3.45;;;;;;;;;;5085513;28;20223;-66
2022/11/05 09:22:33;;;;;;;5.75;4.05;;;;;;;;;;5083070;28;20240;-66
2022/11/05 09:25:00;;;;;;;6.05;4.25;;;;;;;;;;5083369;28;20629;-66
2022/11/05 09:27:27;;;;;;;3.90;3.22;;;;;;;;;;5080636;28;20214;-66
2022/11/05 09:29:54;;;;;;;6.00;4.80;;;;;;;;;;5077416;28;20580;-66
2022/11/05 09:32:23;;;;;;;4.70;3.72;;;;;;;;;;5076876;28;20222;-66
2022/11/05 09:34:50;;;;;;;5.60;4.10;;;;;;;;;;5077596;28;20218;-67
2022/11/05 09:37:17;;;;;;;6.53;4.65;;;;;;;;;;5079457;28;20214;-66
2022/11/05 09:39:44;;;;;;;7.80;4.35;;;;;;;;;;5078744;28;20198;-67
2022/11/05 09:42:14;;;;;;;6.90;3.90;;;;;;;;;;5078240;28;20633;-67
2022/11/05 09:44:42;;;;;;;6.50;3.90;;;;;;;;;;5080784;28;20198;-66
2022/11/05 09:47:13;;;;;;;6.38;4.25;;;;;;;;;;5078899;28;20442;-67
2022/11/05 09:49:43;;;;;;;7.83;5.03;;;;;;;;;;5078903;28;20191;-66
2022/11/05 09:52:12;;;;;;;6.63;3.60;;;;;;;;;;5083105;28;20464;-67
2022/11/05 09:54:40;;;;;;;3.90;3.40;;;;;;;;;;5086742;28;20210;-66
2022/11/05 09:57:08;;;;;;;8.80;4.77;;;;;;;;;;5084029;28;20451;-67
2022/11/05 09:59:38;;;;;;;8.45;4.28;;;;;;;;;;5081985;28;20440;-67
2022/11/05 10:02:12;;;;;;;7.80;4.37;;;;;;;;;;5082831;28;20222;-66
2022/11/05 10:04:40;;;;;;;5.40;3.97;;;;;;;;;;5081336;28;20431;-67
2022/11/05 10:07:11;;;;;;;5.83;4.20;;;;;;;;;;5080995;28;20459;-67
2022/11/05 10:09:41;;;;;;;7.60;4.43;;;;;;;;;;5079271;28;20440;-67
2022/11/05 10:12:13;;;;;;;5.80;4.20;;;;;;;;;;5077164;28;20460;-66
2022/11/05 10:14:42;;;;;;;6.90;4.53;;;;;;;;;;5076078;28;20437;-66
2022/11/05 10:17:11;;;;;;;5.97;4.23;;;;;;;;;;5075946;28;20444;-67
2022/11/05 10:19:42;;;;;;;5.03;3.77;;;;;;;;;;5076865;28;20939;-66
2022/11/05 10:22:12;;;;;;;8.50;4.93;;;;;;;;;;5075274;28;20482;-66
2022/11/05 10:24:41;;;;;;;4.60;4.00;;;;;;;;;;5075693;28;20447;-66
2022/11/05 10:27:10;;;;;;;7.77;4.87;;;;;;;;;;5075061;28;20790;-67
2022/11/05 10:29:38;;;;;;;7.77;3.97;;;;;;;;;;5074827;28;20523;-66
2022/11/05 10:32:06;;;;;;;11.30;5.07;;;;;;;;;;5075022;28;20480;-67
2022/11/05 10:34:34;;;;;;;6.73;4.73;;;;;;;;;;5074992;28;20502;-67
2022/11/05 10:37:02;;;;;;;6.03;3.70;;;;;;;;;;5074938;28;20892;-67
2022/11/05 10:39:31;;;;;;;5.93;4.13;;;;;;;;;;5076467;28;20449;-67
2022/11/05 10:42:06;;;;;;;6.83;4.53;;;;;;;;;;5074368;28;20472;-67
2022/11/05 10:44:37;;;;;;;6.73;4.80;;;;;;;;;;5075378;28;20430;-67
2022/11/05 10:47:15;;;;;;;6.93;4.77;;;;;;;;;;5075301;28;20465;-66
2022/11/05 10:49:46;;;;;;;7.90;5.30;;;;;;;;;;5074515;28;20433;-67
2022/11/05 10:52:22;;;;;;;6.33;4.80;;;;;;;;;;5074399;28;20487;-67
2022/11/05 10:54:51;;;;;;;8.57;4.67;;;;;;;;;;5074691;28;20502;-66
2022/11/05 10:57:29;;;;;;;7.47;5.33;;;;;;;;;;5074326;28;20978;-66
2022/11/05 11:00:18;;;;;;;7.53;5.20;;;;;;;;;;5074074;28;20455;-67
2022/11/05 11:02:46;;;;;;;6.30;5.43;;;;;;;;;;5074815;28;20994;-67
2022/11/05 11:05:19;;;;;;;10.23;6.00;;;;;;;;;;5074303;28;20466;-66
2022/11/05 11:07:53;;;;;;;9.80;5.57;;;;;;;;;;5074336;28;20850;-67
2022/11/05 11:10:22;;;;;;;7.57;5.60;;;;;;;;;;5073390;28;20514;-67
2022/11/05 11:12:50;;;;;;;9.23;5.17;;;;;;;;;;5074207;28;20837;-67
2022/11/05 11:15:22;;;;;;;8.77;5.07;;;;;;;;;;5074255;28;20956;-67
2022/11/05 11:17:49;;;;;;;8.43;6.40;;;;;;;;;;5074433;28;20443;-67
2022/11/05 11:20:25;;;;;;;9.00;6.07;;;;;;;;;;5073982;28;20448;-67
2022/11/05 11:23:16;;;;;;;8.13;6.17;;;;;;;;;;5073561;28;20611;-68
2022/11/05 11:25:47;;;;;;;12.27;5.30;;;;;;;;;;5058693;28;20465;-67
2022/11/05 11:28:20;;;;;;;8.57;6.10;;;;;;;;;;5087770;28;20412;-67
2022/11/05 11:30:49;;;;;;;9.60;5.57;;;;;;;;;;5088157;28;20485;-67
2022/11/05 11:33:18;;;;;;;8.53;6.90;;;;;;;;;;5080630;28;20482;-67
2022/11/05 11:35:47;;;;;;;11.00;5.63;;;;;;;;;;5080125;28;20902;-66
2022/11/05 11:38:15;;;;;;;7.33;5.83;;;;;;;;;;5075321;28;20443;-65
2022/11/05 11:40:43;;;;;;;8.07;5.60;;;;;;;;;;5075315;28;20449;-65
2022/11/05 11:43:15;;;;;;;9.70;5.77;;;;;;;;;;5076146;28;20828;-67
2022/11/05 11:45:46;;;;;;;8.53;6.40;;;;;;;;;;5076672;28;20875;-66
2022/11/05 11:48:16;;;;;;;9.80;6.67;;;;;;;;;;5076456;28;20447;-66
2022/11/05 11:50:44;;;;;;;8.00;5.90;;;;;;;;;;5077798;28;21003;-66
2022/11/05 11:53:18;;;;;;;8.27;6.03;;;;;;;;;;5076031;28;20544;-66
2022/11/05 11:55:57;;;;;;;7.50;5.40;;;;;;;;;;5074994;28;20798;-66
2022/11/05 11:58:36;;;;;;;11.63;6.90;;;;;;;;;;5075061;28;20437;-67
2022/11/05 12:01:10;;;;;;;10.70;5.60;;;;;;;;;;5073756;28;20430;-66
2022/11/05 12:03:41;;;;;;;11.83;6.33;;;;;;;;;;5074680;28;20824;-66
2022/11/05 12:06:13;;;;;;;10.30;6.33;;;;;;;;;;5074141;28;20428;-67
2022/11/05 12:08:42;;;;;;;8.43;6.07;;;;;;;;;;5073678;28;20808;-65
2022/11/05 12:11:13;;;;;;;13.80;7.07;;;;;;;;;;5074578;28;20491;-68
2022/11/05 12:13:52;;;;;;;9.67;6.30;;;;;;;;;;5073896;28;21006;-67
2022/11/05 12:16:25;;;;;;;11.20;6.07;;;;;;;;;;5074680;28;20436;-67
2022/11/05 12:18:55;;;;;;;6.63;5.80;;;;;;;;;;5073290;28;20438;-66
2022/11/05 12:21:25;;;;;;;11.00;5.87;;;;;;;;;;5073694;28;20446;-65
2022/11/05 12:24:05;;;;;;;12.20;6.80;;;;;;;;;;5073855;28;20464;-64
2022/11/05 12:26:40;;;;;;;12.03;7.50;;;;;;;;;;5074256;28;20439;-67
2022/11/05 12:29:18;;;;;;;8.33;6.27;;;;;;;;;;5074103;28;20431;-67
2022/11/05 12:31:49;;;;;;;13.30;7.67;;;;;;;;;;5077014;28;20493;-66
2022/11/05 12:34:26;;;;;;;11.53;7.37;;;;;;;;;;5078192;28;20802;-67
2022/11/05 12:37:00;;;;;;;11.90;8.20;;;;;;;;;;5079521;28;20781;-67
2022/11/05 12:39:32;;;;;;;10.10;7.47;;;;;;;;;;5077829;28;20439;-65
2022/11/05 12:42:01;;;;;;;8.80;6.87;;;;;;;;;;5077346;28;20469;-66
2022/11/05 12:44:38;;;;;;;11.70;8.20;;;;;;;;;;5077842;28;20449;-67
2022/11/05 12:47:12;;;;;;;12.70;7.97;;;;;;;;;;5078103;28;20431;-66
2022/11/05 12:49:48;;;;;;;12.50;8.20;;;;;;;;;;5077533;28;20933;-68
2022/11/05 12:52:20;;;;;;;11.77;7.47;;;;;;;;;;5078589;28;20861;-67
2022/11/05 12:54:58;;;;;;;10.57;7.73;;;;;;;;;;5077593;28;20742;-66
2022/11/05 12:57:27;;;;;;;12.87;7.60;;;;;;;;;;5080982;28;20451;-67
2022/11/05 12:59:59;;;;;;;9.83;7.27;;;;;;;;;;5084841;28;20529;-67
2022/11/05 13:02:27;;;;;;;9.20;7.20;;;;;;;;;;5084978;28;20465;-66
2022/11/05 13:04:56;;;;;;;9.07;7.00;;;;;;;;;;5086029;28;20446;-67
2022/11/05 13:07:27;;;;;;;9.07;7.13;;;;;;;;;;5084364;28;20452;-68
2022/11/05 13:09:55;;;;;;;10.77;7.67;;;;;;;;;;5085693;28;20432;-67
2022/11/05 13:12:25;;;;;;;12.50;7.90;;;;;;;;;;5083796;28;20487;-67
2022/11/05 13:14:54;;;;;;;10.10;7.27;;;;;;;;;;5084242;28;20439;-67
2022/11/05 13:17:24;;;;;;;8.13;7.27;;;;;;;;;;5081942;28;20712;-67
2022/11/05 13:19:52;;;;;;;11.50;8.33;;;;;;;;;;5081808;28;20443;-67
2022/11/05 13:22:29;;;;;;;9.27;6.77;;;;;;;;;;5085263;28;20553;-66
2022/11/05 13:24:58;;;;;;;13.87;7.87;;;;;;;;;;5083924;28;20554;-67
2022/11/05 13:27:41;;;;;;;9.57;6.57;;;;;;;;;;5088817;28;20455;-67
2022/11/05 13:30:13;;;;;;;9.57;6.60;;;;;;;;;;5090216;28;20809;-67
2022/11/05 13:32:43;;;;;;;9.00;6.00;;;;;;;;;;5085035;28;20489;-68
2022/11/05 13:35:15;;;;;;;6.70;6.00;;;;;;;;;;5081259;28;20557;-67
2022/11/05 13:40:34;;;;;;;7.17;5.70;;;;;;;;;;5077872;28;20403;-67
2022/11/05 13:43:07;;;;;;;8.93;5.87;;;;;;;;;;5076065;28;20539;-67
2022/11/05 13:45:49;;;;;;;7.77;5.50;;;;;;;;;;5077506;28;20428;-67
2022/11/05 13:48:29;;;;;;;9.20;5.90;;;;;;;;;;5077194;28;20805;-66
2022/11/05 13:51:06;;;;;;;6.00;5.17;;;;;;;;;;5077630;28;20432;-66
2022/11/05 13:53:51;;;;;;;5.83;5.23;;;;;;;;;;5079939;28;20461;-67
2022/11/05 13:56:22;;;;;;;6.17;5.27;;;;;;;;;;5067175;28;20535;-67
2022/11/05 13:58:58;;;;;;;10.10;6.00;;;;;;;;;;5079406;28;20439;-65
2022/11/05 14:01:32;;;;;;;6.40;5.30;;;;;;;;;;5078481;28;20419;-66
2022/11/05 14:04:01;;;;;;;9.47;5.03;;;;;;;;;;5076014;28;20441;-67
2022/11/05 14:06:30;;;;;;;7.03;5.57;;;;;;;;;;5075738;28;20549;-66
2022/11/05 14:08:58;;;;;;;8.43;6.30;;;;;;;;;;5075448;28;20818;-66
2022/11/05 14:11:26;;;;;;;8.03;5.00;;;;;;;;;;5075732;28;20475;-66
2022/11/05 14:13:56;;;;;;;6.90;5.33;;;;;;;;;;5074616;28;20476;-67
2022/11/05 14:16:24;;;;;;;6.50;5.57;;;;;;;;;;5075846;28;20461;-67
2022/11/05 14:18:55;;;;;;;6.83;4.40;;;;;;;;;;5075820;28;20451;-67
2022/11/05 14:21:40;;;;;;;5.90;5.07;;;;;;;;;;5077025;28;20481;-66
2022/11/05 14:24:25;;;;;;;6.23;4.63;;;;;;;;;;5075639;28;20429;-67
2022/11/05 14:27:08;;;;;;;8.57;4.60;;;;;;;;;;5075392;28;20422;-66
2022/11/05 14:29:39;;;;;;;6.40;5.00;;;;;;;;;;5074685;28;20912;-67
2022/11/05 14:32:24;;;;;;;7.90;5.10;;;;;;;;;;5075431;28;20486;-66
2022/11/05 14:34:55;;;;;;;6.00;4.47;;;;;;;;;;5077214;28;20433;-67
2022/11/05 14:37:27;;;;;;;5.85;3.63;;;;;;;;;;5075621;28;20428;-67
2022/11/05 14:39:56;;;;;;;4.93;4.20;;;;;;;;;;5089433;28;20212;-66
2022/11/05 14:42:25;;;;;;;5.10;4.47;;;;;;;;;;5088558;28;20466;-67
2022/11/05 14:44:57;;;;;;;6.03;4.37;;;;;;;;;;5088255;28;20448;-66
2022/11/05 14:47:24;;;;;;;4.40;4.00;;;;;;;;;;5087239;28;20445;-66
2022/11/05 14:49:54;;;;;;;6.53;5.15;;;;;;;;;;5087457;28;20196;-65
2022/11/05 14:52:21;;;;;;;4.95;4.55;;;;;;;;;;5080149;28;20224;-67
2022/11/05 14:54:50;;;;;;;5.27;4.30;;;;;;;;;;5076235;28;20201;-66
2022/11/05 14:57:49;;;;;;;5.43;4.13;;;;;;;;;;5077737;28;20811;-65
2022/11/05 15:00:31;;;;;;;6.38;4.63;;;;;;;;;;5075932;28;20541;-67
2022/11/05 15:03:00;;;;;;;6.20;4.10;;;;;;;;;;5076872;28;20214;-66
2022/11/05 15:05:38;;;;;;;5.97;4.35;;;;;;;;;;5076597;28;20279;-66
2022/11/05 15:08:24;;;;;;;4.93;4.43;;;;;;;;;;5076054;28;20197;-67
2022/11/05 15:10:51;;;;;;;6.10;4.45;;;;;;;;;;5076867;28;20502;-67
2022/11/05 15:13:27;;;;;;;10.75;4.93;;;;;;;;;;5078858;28;20236;-66
2022/11/05 15:15:54;;;;;;;6.50;4.40;;;;;;;;;;5076688;28;20196;-67
2022/11/05 15:18:27;;;;;;;7.90;5.10;;;;;;;;;;5075305;28;20445;-67
2022/11/05 15:20:55;;;;;;;5.50;5.00;;;;;;;;;;5075586;28;20426;-67
2022/11/05 15:23:24;;;;;;;6.20;4.80;;;;;;;;;;5074277;28;20236;-67
2022/11/05 15:25:52;;;;;;;6.32;5.68;;;;;;;;;;5076029;28;20196;-66
2022/11/05 15:28:25;;;;;;;7.70;5.05;;;;;;;;;;5075527;28;20215;-67
2022/11/05 15:30:58;;;;;;;7.75;5.30;;;;;;;;;;5079887;28;20190;-66
2022/11/05 15:33:25;;;;;;;6.10;5.47;;;;;;;;;;5086780;28;20223;-68
2022/11/05 15:35:53;;;;;;;10.15;5.70;;;;;;;;;;5084353;28;20201;-66
2022/11/05 15:38:27;;;;;;;9.32;6.00;;;;;;;;;;5082087;28;20195;-66
2022/11/05 15:40:58;;;;;;;6.47;5.55;;;;;;;;;;5076519;28;20206;-67